createdAt,value
2022-12-07T00:04:28.533Z,2.60
2022-12-07T00:09:31.946Z,2.40
2022-12-07T00:14:35.587Z,2.80
2022-12-07T00:19:40.407Z,2.83
2022-12-07T00:24:43.785Z,2.60
2022-12-07T00:29:47.184Z,3.13
2022-12-07T00:34:52.011Z,2.67
2022-12-07T00:39:55.432Z,3.40
2022-12-07T00:44:58.855Z,2.60
2022-12-07T00:50:04.104Z,2.93
2022-12-07T00:55:08.396Z,3.00
2022-12-07T01:00:12.173Z,3.10
2022-12-07T01:05:17.234Z,3.27
2022-12-07T01:10:20.935Z,2.90
2022-12-07T01:15:24.452Z,3.57
2022-12-07T01:20:29.262Z,3.60
2022-12-07T01:25:32.681Z,3.90
2022-12-07T01:30:36.139Z,3.60
2022-12-07T01:35:40.977Z,3.63
2022-12-07T01:40:44.342Z,3.60
2022-12-07T01:45:47.780Z,3.60
2022-12-07T01:50:55.778Z,3.17
2022-12-07T01:56:01.446Z,3.60
2022-12-07T02:01:04.977Z,3.80
2022-12-07T02:06:10.383Z,3.10
2022-12-07T02:11:14.014Z,3.63
2022-12-07T02:16:27.688Z,3.40
2022-12-07T02:21:42.740Z,3.97
2022-12-07T02:27:09.967Z,3.83
2022-12-07T02:32:19.039Z,3.50
2022-12-07T02:37:35.666Z,4.40
2022-12-07T02:42:43.473Z,4.30
2022-12-07T02:47:53.336Z,5.60
2022-12-07T02:52:57.211Z,5.47
2022-12-07T02:58:21.943Z,6.67
2022-12-07T03:03:27.002Z,6.57
2022-12-07T03:08:39.991Z,6.60
2022-12-07T03:13:50.386Z,6.60
2022-12-07T03:18:58.557Z,6.53
2022-12-07T03:24:08.008Z,6.70
2022-12-07T03:29:16.678Z,6.80
2022-12-07T03:34:28.372Z,6.90
2022-12-07T03:39:36.473Z,7.23
2022-12-07T03:44:42.405Z,7.57
2022-12-07T03:49:52.750Z,8.17
2022-12-07T03:55:00.179Z,8.40
2022-12-07T04:00:08.725Z,9.03
2022-12-07T04:05:19.514Z,9.10
2022-12-07T04:10:22.927Z,9.97
2022-12-07T04:15:26.712Z,9.23
2022-12-07T04:20:31.589Z,9.27
2022-12-07T04:25:34.950Z,9.40
2022-12-07T04:30:38.307Z,8.03
2022-12-07T04:35:44.674Z,7.50
2022-12-07T04:40:48.011Z,7.70
2022-12-07T04:45:52.237Z,7.70
2022-12-07T04:50:57.156Z,7.80
2022-12-07T04:56:02.137Z,7.97
2022-12-07T05:01:05.609Z,7.17
2022-12-07T05:06:13.655Z,8.67
2022-12-07T05:11:31.313Z,8.77
2022-12-07T05:16:34.804Z,9.03
2022-12-07T05:21:40.437Z,9.70
2022-12-07T05:26:44.732Z,9.70
2022-12-07T05:31:48.158Z,11.13
2022-12-07T05:36:53.229Z,10.77
2022-12-07T05:42:15.155Z,11.50
2022-12-07T05:47:18.615Z,9.80
2022-12-07T05:52:23.661Z,9.83
2022-12-07T05:57:27.075Z,10.53
2022-12-07T06:02:30.573Z,9.70
2022-12-07T06:07:35.743Z,10.60
2022-12-07T06:12:40.522Z,11.67
2022-12-07T06:17:43.849Z,10.93
2022-12-07T06:22:48.659Z,11.47
2022-12-07T06:27:52.046Z,12.23
2022-12-07T06:32:55.402Z,12.53
2022-12-07T06:38:00.327Z,14.00
2022-12-07T06:43:03.708Z,12.93
2022-12-07T06:48:07.622Z,13.43
2022-12-07T06:53:12.426Z,12.67
2022-12-07T06:58:15.819Z,13.27
2022-12-07T07:03:19.547Z,12.27
2022-12-07T07:08:24.820Z,12.63
2022-12-07T07:13:28.303Z,12.27
2022-12-07T07:18:31.737Z,13.27
2022-12-07T07:23:36.566Z,13.27
2022-12-07T07:28:40.400Z,12.47
2022-12-07T07:33:43.787Z,13.43
2022-12-07T07:38:48.566Z,14.20
2022-12-07T07:43:52.016Z,13.57
2022-12-07T07:48:55.449Z,13.53
2022-12-07T07:54:00.307Z,13.17
2022-12-07T07:59:03.793Z,15.37
2022-12-07T08:04:07.198Z,14.83
2022-12-07T08:09:12.082Z,15.67
2022-12-07T08:14:15.754Z,17.97
2022-12-07T08:19:19.358Z,17.67
2022-12-07T08:24:24.189Z,17.73
2022-12-07T08:29:27.524Z,17.47
2022-12-07T08:34:30.850Z,19.43
2022-12-07T08:39:36.059Z,17.83
2022-12-07T08:44:39.498Z,17.43
2022-12-07T08:49:46.685Z,16.80
2022-12-07T08:54:51.655Z,17.30
2022-12-07T08:59:55.111Z,18.50
2022-12-07T09:04:58.457Z,20.73
2022-12-07T09:10:03.850Z,16.43
2022-12-07T09:15:08.309Z,16.53
2022-12-07T09:20:12.880Z,18.60
2022-12-07T09:25:17.771Z,17.70
2022-12-07T09:30:21.390Z,19.27
2022-12-07T09:35:26.385Z,18.80
2022-12-07T09:40:31.270Z,15.50
2022-12-07T09:45:37.777Z,17.13
2022-12-07T09:50:42.222Z,17.27
2022-12-07T09:55:46.945Z,15.83
2022-12-07T10:00:51.301Z,15.00
2022-12-07T10:05:55.880Z,12.37
2022-12-07T10:11:04.558Z,11.90
2022-12-07T10:16:09.420Z,12.93
2022-12-07T10:21:15.945Z,11.03
2022-12-07T10:26:30.497Z,11.97
2022-12-07T10:31:34.242Z,11.43
2022-12-07T10:36:39.900Z,11.27
2022-12-07T10:41:58.343Z,11.03
2022-12-07T10:47:22.612Z,11.77
2022-12-07T10:52:50.421Z,11.20
2022-12-07T10:58:20.407Z,11.70
2022-12-07T11:03:35.018Z,8.80
2022-12-07T11:08:53.640Z,8.57
2022-12-07T11:14:05.726Z,9.50
2022-12-07T11:19:34.609Z,10.23
2022-12-07T11:24:47.605Z,10.60
2022-12-07T11:30:21.908Z,11.10
2022-12-07T11:35:47.986Z,10.83
2022-12-07T11:40:53.573Z,9.70
2022-12-07T11:46:06.008Z,8.97
2022-12-07T11:51:12.567Z,10.47
2022-12-07T11:56:18.328Z,10.77
2022-12-07T12:01:35.710Z,10.20
2022-12-07T12:06:39.615Z,10.63
2022-12-07T12:17:56.571Z,9.30
2022-12-07T12:23:08.171Z,10.83
2022-12-07T12:28:24.042Z,10.70
2022-12-07T12:33:32.385Z,9.87
2022-12-07T12:38:49.732Z,10.70
2022-12-07T12:43:54.426Z,10.70
2022-12-07T12:49:33.110Z,10.17
2022-12-07T12:54:39.411Z,10.13
2022-12-07T12:59:44.648Z,9.83
2022-12-07T13:04:55.926Z,10.43
2022-12-07T13:09:59.416Z,10.07
2022-12-07T13:15:04.556Z,11.17
2022-12-07T13:20:17.245Z,11.20
2022-12-07T13:25:28.667Z,12.73
2022-12-07T13:30:33.378Z,11.77
2022-12-07T13:35:39.873Z,12.27
2022-12-07T13:40:43.283Z,13.03
2022-12-07T13:45:52.742Z,13.47
2022-12-07T13:50:58.842Z,13.83
2022-12-07T13:56:03.574Z,13.53
2022-12-07T14:01:08.068Z,12.27
2022-12-07T14:06:28.082Z,12.83
2022-12-07T14:11:32.799Z,13.63
2022-12-07T14:16:39.011Z,13.53
2022-12-07T14:21:43.925Z,14.93
2022-12-07T14:26:51.813Z,14.73
2022-12-07T14:31:56.791Z,18.67
2022-12-07T14:37:01.529Z,18.87
2022-12-07T14:42:05.056Z,19.27
2022-12-07T14:58:01.142Z,18.13
2022-12-07T15:03:04.605Z,18.50
2022-12-07T15:08:11.506Z,21.17
2022-12-07T15:13:32.022Z,18.97
2022-12-07T15:18:35.662Z,18.43
2022-12-07T15:23:40.459Z,19.93
2022-12-07T15:28:44.573Z,18.60
2022-12-07T15:33:47.997Z,20.93
2022-12-07T15:44:34.202Z,21.77
2022-12-07T15:49:37.669Z,19.83
2022-12-07T15:54:42.408Z,19.43
2022-12-07T15:59:45.858Z,18.87
2022-12-07T16:04:49.292Z,18.43
2022-12-07T16:09:54.051Z,16.47
2022-12-07T16:14:57.429Z,17.20
2022-12-07T16:20:00.802Z,15.13
2022-12-07T16:25:06.323Z,15.10
2022-12-07T16:30:11.030Z,16.43
2022-12-07T16:35:15.100Z,15.50
2022-12-07T16:40:19.993Z,17.10
2022-12-07T16:45:23.363Z,14.20
2022-12-07T16:50:27.074Z,15.27
2022-12-07T16:55:32.249Z,15.43
2022-12-07T17:00:36.107Z,17.17
2022-12-07T17:05:41.202Z,17.20
2022-12-07T17:10:47.175Z,16.43
2022-12-07T17:15:57.907Z,18.67
2022-12-07T17:21:05.699Z,18.13
2022-12-07T17:26:13.206Z,18.30
2022-12-07T17:31:18.124Z,18.10
2022-12-07T17:36:24.005Z,17.47
2022-12-07T17:41:47.478Z,14.03
2022-12-07T17:46:55.468Z,12.40
2022-12-07T17:52:16.220Z,12.03
2022-12-07T17:57:21.139Z,11.47
2022-12-07T18:02:24.573Z,10.80
2022-12-07T18:07:28.220Z,11.87
2022-12-07T18:12:33.080Z,12.63
2022-12-07T18:17:36.403Z,13.07
2022-12-07T18:22:40.059Z,14.80
2022-12-07T18:27:44.860Z,15.10
2022-12-07T18:32:48.212Z,15.80
2022-12-07T18:37:51.579Z,17.37
2022-12-07T18:42:56.427Z,17.13
2022-12-07T18:48:00.762Z,17.80
2022-12-07T18:53:06.036Z,18.03
2022-12-07T18:58:10.818Z,17.23
2022-12-07T19:03:14.247Z,18.20
2022-12-07T19:08:17.762Z,17.33
2022-12-07T19:13:22.557Z,16.67
2022-12-07T19:18:25.953Z,16.53
2022-12-07T19:23:29.366Z,16.70
2022-12-07T19:28:34.634Z,16.43
2022-12-07T19:33:38.014Z,16.63
2022-12-07T19:38:41.390Z,16.13
2022-12-07T19:43:46.188Z,18.00
2022-12-07T19:48:49.570Z,17.17
2022-12-07T19:53:52.935Z,16.27
2022-12-07T19:59:00.297Z,16.23
2022-12-07T20:04:06.308Z,16.97
2022-12-07T20:09:10.429Z,16.67
2022-12-07T20:14:15.696Z,16.80
2022-12-07T20:19:19.231Z,15.80
2022-12-07T20:24:24.919Z,15.50
2022-12-07T20:29:29.670Z,14.47
2022-12-07T20:34:33.066Z,13.70
2022-12-07T20:39:36.447Z,12.97
2022-12-07T20:44:41.281Z,12.97
2022-12-07T20:49:44.916Z,11.73
2022-12-07T20:54:48.322Z,11.10
2022-12-07T20:59:53.100Z,11.23
2022-12-07T21:04:56.466Z,9.47
2022-12-07T21:09:59.866Z,10.33
2022-12-07T21:15:05.138Z,12.03
2022-12-07T21:20:10.163Z,10.77
2022-12-07T21:25:14.104Z,10.97
2022-12-07T21:30:18.879Z,10.63
2022-12-07T21:35:22.315Z,11.63
2022-12-07T21:40:25.629Z,11.90
2022-12-07T21:45:30.410Z,12.23
2022-12-07T21:50:36.259Z,13.23
2022-12-07T21:55:41.189Z,13.47
2022-12-07T22:00:46.009Z,14.53
2022-12-07T22:05:49.408Z,14.13
2022-12-07T22:10:52.892Z,16.70
2022-12-07T22:15:57.726Z,17.70
2022-12-07T22:21:01.528Z,20.27
2022-12-07T22:26:07.081Z,20.37
2022-12-07T22:31:13.989Z,20.53
2022-12-07T22:36:18.057Z,19.10
2022-12-07T22:41:25.137Z,20.47
2022-12-07T22:46:29.957Z,19.07
2022-12-07T22:51:35.600Z,18.27
2022-12-07T22:56:39.657Z,20.33
2022-12-07T23:01:44.670Z,18.70
2022-12-07T23:06:48.133Z,19.20
2022-12-07T23:12:09.021Z,19.50
2022-12-07T23:17:13.794Z,17.80
2022-12-07T23:22:17.153Z,20.40
2022-12-07T23:27:20.561Z,18.97
2022-12-07T23:32:25.270Z,19.13
2022-12-07T23:37:28.634Z,18.43
2022-12-07T23:42:31.982Z,20.67
2022-12-07T23:47:36.769Z,19.43
2022-12-07T23:52:40.144Z,19.33
2022-12-07T23:57:43.521Z,19.07
